Hope Hull, Alabama
Current Conditions -  °F | °C
As of 3:26 PM on Sunday 23 Nov 2014 (Local Time) from KMGM Reporting Station
Broken Clouds Broken Clouds  
Wind Chill: 66°   Ceiling: 2600
Heat Index: 66°   Visibility: 10mi
Dew Point: 59°   Wind: 13mph
Humidity: 78%   Direction: 200°SSW
Pressure: 29.64"   Gusts: 25mph
Location:  32.27°N, 86.36°W
Report Text: KMGM 232126Z 20011G22KT 10SM BKN026 19/15 A2964 RMK AO2 PK WND 19026/2102
Loading
Personal Weather Stations






























Interactive Weather Map New forecast layout! Learn more

10-Day Weather Forecast

Advertisements
Track Severe Weather on mobile